createdAt,value
2023-03-16T00:01:49.453Z,3.94
2023-03-16T00:04:17.115Z,3.57
2023-03-16T00:06:44.478Z,3.71
2023-03-16T00:09:11.822Z,3.82
2023-03-16T00:11:39.442Z,3.30
2023-03-16T00:14:06.819Z,3.36
2023-03-16T00:16:35.349Z,3.52
2023-03-16T00:19:06.068Z,3.44
2023-03-16T00:21:35.225Z,4.04
2023-03-16T00:24:04.144Z,3.66
2023-03-16T00:26:31.973Z,3.40
2023-03-16T00:28:59.500Z,3.33
2023-03-16T00:31:27.428Z,3.74
2023-03-16T00:33:54.787Z,3.53
2023-03-16T00:36:22.776Z,3.33
2023-03-16T00:38:50.454Z,3.49
2023-03-16T00:41:17.806Z,3.38
2023-03-16T00:43:46.778Z,3.30
2023-03-16T00:46:16.207Z,3.23
2023-03-16T00:48:45.143Z,3.35
2023-03-16T00:51:14.824Z,3.87
2023-03-16T00:53:43.285Z,3.91
2023-03-16T00:56:10.799Z,3.60
2023-03-16T00:58:39.066Z,3.15
2023-03-16T01:01:08.587Z,2.93
2023-03-16T01:03:36.188Z,3.50
2023-03-16T01:06:10.206Z,3.12
2023-03-16T01:08:38.706Z,3.25
2023-03-16T01:11:07.552Z,3.59
2023-03-16T01:13:34.899Z,3.82
2023-03-16T01:16:04.005Z,3.62
2023-03-16T01:18:34.216Z,3.30
2023-03-16T01:21:03.601Z,3.39
2023-03-16T01:23:32.783Z,3.60
2023-03-16T01:26:00.295Z,3.15
2023-03-16T01:28:29.571Z,3.88
2023-03-16T01:31:00.372Z,3.72
2023-03-16T01:33:28.325Z,3.53
2023-03-16T01:35:56.896Z,3.11
2023-03-16T01:38:25.246Z,2.97
2023-03-16T01:40:53.879Z,3.05
2023-03-16T01:43:22.591Z,3.17
2023-03-16T01:46:18.311Z,3.25
2023-03-16T01:48:58.392Z,3.12
2023-03-16T01:51:33.990Z,3.16
2023-03-16T01:54:08.411Z,3.40
2023-03-16T01:56:45.477Z,3.49
2023-03-16T01:59:14.754Z,3.48
2023-03-16T02:01:42.323Z,3.19
2023-03-16T02:04:17.142Z,3.23
2023-03-16T02:06:44.643Z,3.40
2023-03-16T02:09:12.470Z,3.17
2023-03-16T02:11:39.878Z,3.66
2023-03-16T02:14:09.529Z,3.59
2023-03-16T02:16:37.351Z,3.53
2023-03-16T02:19:07.057Z,2.97
2023-03-16T02:21:56.128Z,3.59
2023-03-16T02:24:24.067Z,3.15
2023-03-16T02:26:59.611Z,3.93
2023-03-16T02:29:49.199Z,3.54
2023-03-16T02:32:17.303Z,3.62
2023-03-16T02:34:44.891Z,4.00
2023-03-16T02:37:13.070Z,3.33
2023-03-16T02:39:44.009Z,3.60
2023-03-16T02:42:13.042Z,3.33
2023-03-16T02:44:43.686Z,3.02
2023-03-16T02:47:16.605Z,3.04
2023-03-16T02:49:45.159Z,2.94
2023-03-16T02:52:12.579Z,3.00
2023-03-16T02:54:40.055Z,3.43
2023-03-16T02:57:09.389Z,3.20
2023-03-16T02:59:36.875Z,2.76
2023-03-16T03:02:04.365Z,2.84
2023-03-16T03:04:33.102Z,2.69
2023-03-16T03:07:04.770Z,2.58
2023-03-16T03:09:33.240Z,2.94
2023-03-16T03:12:00.649Z,3.03
2023-03-16T03:14:28.595Z,2.91
2023-03-16T03:16:56.294Z,3.09
2023-03-16T03:19:23.645Z,2.58
2023-03-16T03:21:51.538Z,2.67
2023-03-16T03:24:19.142Z,2.96
2023-03-16T03:26:47.472Z,2.76
2023-03-16T03:29:16.010Z,2.81
2023-03-16T03:31:43.807Z,2.25
2023-03-16T03:34:11.761Z,2.47
2023-03-16T03:36:39.193Z,2.31
2023-03-16T03:39:07.194Z,2.31
2023-03-16T03:41:34.883Z,2.40
2023-03-16T03:44:02.440Z,2.79
2023-03-16T03:46:30.268Z,2.82
2023-03-16T03:49:03.614Z,2.52
2023-03-16T03:51:32.964Z,2.89
2023-03-16T03:54:00.752Z,2.47
2023-03-16T03:56:28.883Z,2.34
2023-03-16T03:58:56.796Z,2.33
2023-03-16T04:01:24.989Z,2.20
2023-03-16T04:03:52.661Z,2.27
2023-03-16T04:06:20.610Z,2.49
2023-03-16T04:08:47.982Z,2.09
2023-03-16T04:11:15.749Z,2.20
2023-03-16T04:13:43.540Z,1.83
2023-03-16T04:16:11.094Z,2.03
2023-03-16T04:18:39.065Z,2.34
2023-03-16T04:21:07.431Z,2.28
2023-03-16T04:23:34.860Z,2.07
2023-03-16T04:26:03.862Z,1.89
2023-03-16T04:28:32.671Z,1.80
2023-03-16T04:31:07.609Z,1.76
2023-03-16T04:33:36.053Z,2.03
2023-03-16T04:36:04.210Z,1.98
2023-03-16T04:38:35.342Z,1.56
2023-03-16T04:41:03.787Z,1.96
2023-03-16T04:43:34.468Z,1.95
2023-03-16T04:46:03.200Z,2.02
2023-03-16T04:48:32.643Z,1.91
2023-03-16T04:51:01.429Z,1.75
2023-03-16T04:53:31.910Z,1.80
2023-03-16T04:55:59.885Z,1.70
2023-03-16T04:58:27.284Z,2.01
2023-03-16T05:00:58.044Z,2.04
2023-03-16T05:03:25.992Z,1.50
2023-03-16T05:05:53.496Z,1.87
2023-03-16T05:08:21.794Z,1.99
2023-03-16T05:10:49.637Z,1.59
2023-03-16T05:13:17.139Z,2.24
2023-03-16T05:15:45.335Z,1.83
2023-03-16T05:18:13.144Z,1.95
2023-03-16T05:20:41.200Z,2.18
2023-03-16T05:23:09.284Z,2.12
2023-03-16T05:25:36.875Z,2.33
2023-03-16T05:28:05.480Z,2.00
2023-03-16T05:30:33.676Z,2.27
2023-03-16T05:33:01.706Z,2.36
2023-03-16T05:35:29.459Z,2.32
2023-03-16T05:37:58.430Z,2.63
2023-03-16T05:40:26.533Z,2.54
2023-03-16T05:42:55.450Z,2.58
2023-03-16T05:45:23.624Z,2.02
2023-03-16T05:47:51.846Z,1.88
2023-03-16T05:50:19.343Z,2.04
2023-03-16T05:52:48.291Z,2.02
2023-03-16T05:55:16.650Z,1.87
2023-03-16T05:57:44.492Z,2.34
2023-03-16T06:00:14.528Z,2.09
2023-03-16T06:02:44.071Z,2.01
2023-03-16T06:05:11.482Z,2.35
2023-03-16T06:07:41.572Z,2.49
2023-03-16T06:10:10.234Z,2.67
2023-03-16T06:12:38.306Z,2.63
2023-03-16T06:15:10.308Z,2.45
2023-03-16T06:17:38.519Z,3.40
2023-03-16T06:20:11.130Z,3.24
2023-03-16T06:22:40.198Z,3.19
2023-03-16T06:25:08.062Z,3.13
2023-03-16T06:27:38.518Z,3.52
2023-03-16T06:30:07.375Z,3.48
2023-03-16T06:32:36.061Z,3.35
2023-03-16T06:35:04.098Z,3.29
2023-03-16T06:37:32.400Z,3.73
2023-03-16T06:40:00.641Z,3.84
2023-03-16T06:42:28.947Z,3.59
2023-03-16T06:44:57.910Z,3.45
2023-03-16T06:47:26.030Z,3.87
2023-03-16T06:49:55.340Z,3.73
2023-03-16T06:52:24.726Z,3.78
2023-03-16T06:54:52.195Z,4.05
2023-03-16T06:57:19.865Z,4.28
2023-03-16T06:59:47.534Z,4.41
2023-03-16T07:02:15.302Z,4.89
2023-03-16T07:04:43.248Z,4.63
2023-03-16T07:07:11.764Z,4.63
2023-03-16T07:09:41.660Z,5.19
2023-03-16T07:12:09.820Z,5.08
2023-03-16T07:14:38.036Z,5.49
2023-03-16T07:17:05.530Z,5.55
2023-03-16T07:19:33.139Z,5.77
2023-03-16T07:22:02.779Z,5.45
2023-03-16T07:24:32.801Z,5.29
2023-03-16T07:27:00.196Z,5.08
2023-03-16T07:29:28.592Z,5.11
2023-03-16T07:31:56.343Z,5.05
2023-03-16T07:34:24.249Z,5.01
2023-03-16T07:36:52.987Z,5.36
2023-03-16T07:39:21.562Z,5.25
2023-03-16T07:41:51.349Z,5.52
2023-03-16T07:44:19.158Z,5.11
2023-03-16T07:46:47.151Z,5.14
2023-03-16T07:49:16.727Z,5.58
2023-03-16T07:51:44.929Z,5.36
2023-03-16T07:54:13.948Z,5.58
2023-03-16T07:56:48.990Z,5.71
2023-03-16T07:59:20.447Z,5.50
2023-03-16T08:01:48.966Z,5.77
2023-03-16T08:04:19.353Z,5.11
2023-03-16T08:06:47.932Z,5.69
2023-03-16T08:09:15.425Z,6.10
2023-03-16T08:11:43.741Z,5.65
2023-03-16T08:14:11.192Z,5.73
2023-03-16T08:16:39.876Z,5.76
2023-03-16T08:19:07.610Z,5.80
2023-03-16T08:21:45.771Z,6.23
2023-03-16T08:24:21.123Z,6.30
2023-03-16T08:26:48.517Z,6.03
2023-03-16T08:29:17.208Z,6.45
2023-03-16T08:31:45.220Z,6.42
2023-03-16T08:34:12.722Z,6.24
2023-03-16T08:36:43.810Z,6.06
2023-03-16T08:39:12.197Z,6.30
2023-03-16T08:41:40.965Z,6.47
2023-03-16T08:44:10.736Z,6.93
2023-03-16T08:46:39.318Z,7.17
2023-03-16T08:49:06.970Z,6.69
2023-03-16T08:51:34.417Z,6.62
2023-03-16T08:54:01.998Z,6.83
2023-03-16T08:56:30.501Z,6.96
2023-03-16T08:58:58.478Z,7.54
2023-03-16T09:01:26.817Z,7.53
2023-03-16T09:03:55.039Z,7.71
2023-03-16T09:06:22.538Z,7.51
2023-03-16T09:08:50.185Z,6.89
2023-03-16T09:11:18.824Z,7.22
2023-03-16T09:13:46.353Z,7.63
2023-03-16T09:16:15.274Z,7.72
2023-03-16T09:18:42.747Z,7.41
2023-03-16T09:21:10.461Z,7.15
2023-03-16T09:23:38.098Z,7.35
2023-03-16T09:26:07.657Z,7.91
2023-03-16T09:28:35.950Z,8.42
2023-03-16T09:31:03.662Z,8.18
2023-03-16T09:33:32.102Z,7.71
2023-03-16T09:35:59.604Z,7.85
2023-03-16T09:38:27.661Z,8.32
2023-03-16T09:41:29.533Z,8.38
2023-03-16T09:44:18.524Z,8.07
2023-03-16T09:46:46.393Z,8.31
2023-03-16T09:49:16.619Z,8.59
2023-03-16T09:52:09.049Z,8.79
2023-03-16T09:54:59.801Z,8.69
2023-03-16T09:57:29.781Z,9.06
2023-03-16T10:00:07.540Z,9.49
2023-03-16T10:02:56.009Z,8.74
2023-03-16T10:05:23.892Z,8.90
2023-03-16T10:08:14.010Z,9.03
2023-03-16T10:11:02.975Z,8.52
2023-03-16T10:13:55.041Z,8.55
2023-03-16T10:16:30.868Z,8.38
2023-03-16T10:19:02.429Z,8.71
2023-03-16T10:21:30.596Z,9.23
2023-03-16T10:23:58.864Z,9.53
2023-03-16T10:26:31.651Z,8.65
2023-03-16T10:29:01.162Z,9.50
2023-03-16T10:31:29.426Z,9.88
2023-03-16T10:34:02.705Z,9.74
2023-03-16T10:36:35.053Z,10.05
2023-03-16T10:39:10.792Z,9.64
2023-03-16T10:41:43.228Z,9.47
2023-03-16T10:44:17.002Z,9.77
2023-03-16T10:46:50.110Z,9.27
2023-03-16T10:49:27.428Z,9.08
2023-03-16T10:51:57.211Z,9.82
2023-03-16T10:54:33.601Z,9.99
2023-03-16T10:57:02.130Z,10.53
2023-03-16T10:59:34.529Z,10.35
2023-03-16T11:02:03.749Z,9.93
2023-03-16T11:04:33.016Z,9.71
2023-03-16T11:07:00.383Z,9.76
2023-03-16T11:09:34.187Z,9.59
2023-03-16T11:12:15.519Z,9.44
2023-03-16T11:14:44.464Z,9.68
2023-03-16T11:17:34.893Z,9.35
2023-03-16T11:20:14.879Z,9.78
2023-03-16T11:22:42.287Z,10.03
2023-03-16T11:25:14.315Z,9.85
2023-03-16T11:27:54.219Z,9.69
2023-03-16T11:30:35.281Z,9.89
2023-03-16T11:33:04.191Z,10.33
2023-03-16T11:35:58.406Z,9.72
2023-03-16T11:38:44.972Z,10.41
2023-03-16T11:41:25.822Z,10.95
2023-03-16T11:43:56.918Z,10.01
2023-03-16T11:46:28.589Z,10.16
2023-03-16T11:49:02.097Z,10.62
2023-03-16T11:51:33.404Z,10.80
2023-03-16T11:54:11.271Z,10.35
2023-03-16T11:56:58.204Z,10.31
2023-03-16T11:59:28.494Z,9.31
2023-03-16T12:02:05.435Z,9.46
2023-03-16T12:04:59.724Z,9.74
2023-03-16T12:07:42.958Z,9.45
2023-03-16T12:10:24.176Z,9.74
2023-03-16T12:12:57.131Z,9.70
2023-03-16T12:15:45.111Z,9.82
2023-03-16T12:18:16.144Z,10.04
2023-03-16T12:20:56.408Z,9.95
2023-03-16T12:23:43.248Z,9.76
2023-03-16T12:26:12.419Z,10.10
2023-03-16T12:28:41.042Z,9.78
2023-03-16T12:31:13.915Z,9.80
2023-03-16T12:33:53.439Z,10.25
2023-03-16T12:36:55.990Z,10.05
2023-03-16T12:39:40.649Z,9.95
2023-03-16T12:42:27.062Z,9.75
2023-03-16T12:44:57.427Z,10.05
2023-03-16T12:47:44.000Z,10.33
2023-03-16T12:50:13.619Z,10.34
2023-03-16T12:52:48.859Z,10.69
2023-03-16T12:55:23.578Z,10.91
2023-03-16T12:57:51.611Z,10.28
2023-03-16T13:00:19.754Z,10.59
2023-03-16T13:02:53.210Z,9.58
2023-03-16T13:05:34.646Z,9.96
2023-03-16T13:08:13.636Z,9.57
2023-03-16T13:10:41.333Z,9.81
2023-03-16T13:13:11.368Z,9.49
2023-03-16T13:15:39.803Z,10.09
2023-03-16T13:18:10.436Z,10.07
2023-03-16T13:20:57.928Z,10.11
2023-03-16T13:23:49.684Z,10.01
2023-03-16T13:26:19.900Z,10.14
2023-03-16T13:28:51.300Z,10.07
2023-03-16T13:31:25.746Z,9.95
2023-03-16T13:33:55.830Z,10.24
2023-03-16T13:36:25.361Z,10.29
2023-03-16T13:39:14.337Z,9.76
2023-03-16T13:41:43.367Z,10.33
2023-03-16T13:44:13.989Z,10.08
2023-03-16T13:46:41.363Z,10.11
2023-03-16T13:49:11.973Z,10.58
2023-03-16T13:51:39.842Z,10.17
2023-03-16T13:54:21.717Z,10.21
2023-03-16T13:56:50.756Z,9.97
2023-03-16T13:59:18.469Z,9.50
2023-03-16T14:01:46.196Z,9.57
2023-03-16T14:04:15.892Z,9.54
2023-03-16T14:06:51.998Z,9.43
2023-03-16T14:09:21.762Z,10.21
2023-03-16T14:11:49.203Z,9.99
2023-03-16T14:14:17.963Z,9.42
2023-03-16T14:16:45.741Z,9.49
2023-03-16T14:19:17.397Z,9.76
2023-03-16T14:21:45.868Z,9.74
2023-03-16T14:24:30.855Z,9.41
2023-03-16T14:26:58.396Z,9.37
2023-03-16T14:29:28.431Z,9.53
2023-03-16T14:31:56.049Z,9.67
2023-03-16T14:34:26.063Z,9.80
2023-03-16T14:36:53.823Z,10.01
2023-03-16T14:39:21.507Z,9.28
2023-03-16T14:41:49.870Z,9.32
2023-03-16T14:44:25.150Z,10.09
2023-03-16T14:46:53.948Z,9.78
2023-03-16T14:49:25.341Z,9.90
2023-03-16T14:51:53.833Z,9.88
2023-03-16T14:54:22.418Z,10.08
2023-03-16T14:56:51.690Z,9.63
2023-03-16T14:59:19.263Z,9.30
2023-03-16T15:01:46.909Z,9.47
2023-03-16T15:04:15.741Z,9.48
2023-03-16T15:06:43.079Z,9.68
2023-03-16T15:09:37.965Z,9.37
2023-03-16T15:12:16.107Z,9.79
2023-03-16T15:15:02.104Z,10.20
2023-03-16T15:17:29.730Z,10.60
2023-03-16T15:19:57.106Z,10.06
2023-03-16T15:22:29.087Z,9.41
2023-03-16T15:24:57.418Z,9.48
2023-03-16T15:27:27.828Z,9.52
2023-03-16T15:29:55.152Z,9.40
2023-03-16T15:32:22.806Z,9.65
2023-03-16T15:34:50.160Z,9.41
2023-03-16T15:37:17.656Z,9.24
2023-03-16T15:39:48.449Z,9.74
2023-03-16T15:42:17.057Z,9.36
2023-03-16T15:44:45.497Z,8.85
2023-03-16T15:47:13.016Z,8.85
2023-03-16T15:49:47.547Z,9.36
2023-03-16T15:52:36.713Z,9.23
2023-03-16T15:55:07.913Z,9.27
2023-03-16T15:57:35.641Z,9.30
2023-03-16T16:00:03.340Z,9.73
2023-03-16T16:02:32.326Z,9.19
2023-03-16T16:04:59.936Z,9.14
2023-03-16T16:07:27.462Z,9.21
2023-03-16T16:09:54.912Z,9.21
2023-03-16T16:12:26.994Z,9.32
2023-03-16T16:14:56.214Z,9.34
2023-03-16T16:17:36.582Z,9.69
2023-03-16T16:20:23.462Z,9.52
2023-03-16T16:22:52.032Z,9.57
2023-03-16T16:25:21.308Z,8.90
2023-03-16T16:27:49.053Z,9.00
2023-03-16T16:30:26.505Z,9.02
2023-03-16T16:32:54.129Z,9.70
2023-03-16T16:35:25.126Z,8.75
2023-03-16T16:37:52.634Z,8.71
2023-03-16T16:40:24.178Z,9.04
2023-03-16T16:42:52.927Z,8.53
2023-03-16T16:45:21.845Z,8.56
2023-03-16T16:47:52.197Z,8.78
2023-03-16T16:50:25.545Z,8.64
2023-03-16T16:52:53.441Z,8.23
2023-03-16T16:55:22.174Z,8.84
2023-03-16T16:57:49.965Z,8.82
2023-03-16T17:00:23.774Z,9.36
2023-03-16T17:02:53.543Z,8.56
2023-03-16T17:05:25.762Z,9.26
2023-03-16T17:07:53.519Z,9.12
2023-03-16T17:10:27.419Z,9.68
2023-03-16T17:12:56.025Z,8.82
2023-03-16T17:15:30.381Z,9.22
2023-03-16T17:18:03.036Z,9.33
2023-03-16T17:20:31.163Z,9.76
2023-03-16T17:22:58.828Z,9.93
2023-03-16T17:25:26.213Z,10.01
2023-03-16T17:27:54.330Z,10.06
2023-03-16T17:30:28.722Z,10.14
2023-03-16T17:32:59.428Z,10.06
2023-03-16T17:35:27.191Z,10.01
2023-03-16T17:37:54.649Z,10.00
2023-03-16T17:40:25.186Z,9.94
2023-03-16T17:42:53.181Z,9.96
2023-03-16T17:45:22.571Z,10.01
2023-03-16T17:47:50.249Z,9.76
2023-03-16T17:50:24.552Z,9.72
2023-03-16T17:52:52.781Z,9.56
2023-03-16T17:55:22.712Z,9.32
2023-03-16T17:57:51.913Z,9.38
2023-03-16T18:00:23.849Z,9.22
2023-03-16T18:03:19.300Z,9.03
2023-03-16T18:05:46.678Z,8.94
2023-03-16T18:08:27.134Z,8.88
2023-03-16T18:11:05.664Z,8.79
2023-03-16T18:13:35.095Z,8.92
2023-03-16T18:16:02.928Z,8.77
2023-03-16T18:18:31.652Z,8.72
2023-03-16T18:21:00.576Z,8.64
2023-03-16T18:23:29.877Z,8.71
2023-03-16T18:26:02.123Z,8.77
2023-03-16T18:28:31.263Z,8.40
2023-03-16T18:30:59.254Z,8.60
2023-03-16T18:33:36.478Z,8.65
2023-03-16T18:36:06.706Z,8.45
2023-03-16T18:38:39.318Z,8.65
2023-03-16T18:41:28.844Z,8.66
2023-03-16T18:43:57.825Z,8.59
2023-03-16T18:46:26.572Z,8.70
2023-03-16T18:48:55.913Z,8.55
2023-03-16T18:51:23.706Z,8.26
2023-03-16T18:53:51.439Z,8.44
2023-03-16T18:56:26.907Z,8.40
2023-03-16T18:58:55.356Z,8.34
2023-03-16T19:01:30.084Z,8.23
2023-03-16T19:03:58.492Z,8.15
2023-03-16T19:06:29.614Z,7.78
2023-03-16T19:09:06.053Z,7.89
2023-03-16T19:11:33.962Z,8.15
2023-03-16T19:14:01.432Z,8.29
2023-03-16T19:16:28.879Z,8.01
2023-03-16T19:18:56.543Z,8.08
2023-03-16T19:21:24.909Z,7.87
2023-03-16T19:23:55.846Z,7.81
2023-03-16T19:26:23.493Z,7.59
2023-03-16T19:28:50.859Z,7.86
2023-03-16T19:31:20.376Z,8.15
2023-03-16T19:33:48.320Z,8.05
2023-03-16T19:36:17.715Z,7.93
2023-03-16T19:38:46.470Z,8.07
2023-03-16T19:41:34.400Z,8.05
2023-03-16T19:44:08.479Z,8.12
2023-03-16T19:46:36.211Z,8.14
2023-03-16T19:49:03.593Z,7.97
2023-03-16T19:51:32.262Z,8.03
2023-03-16T19:54:01.370Z,8.23
2023-03-16T19:56:28.930Z,8.08
2023-03-16T19:58:56.325Z,8.03
2023-03-16T20:01:30.336Z,8.07
2023-03-16T20:03:59.733Z,8.08
2023-03-16T20:06:27.230Z,7.92
2023-03-16T20:08:54.715Z,7.74
2023-03-16T20:11:27.641Z,7.51
2023-03-16T20:13:55.011Z,7.74
2023-03-16T20:16:30.006Z,7.26
2023-03-16T20:18:58.883Z,7.47
2023-03-16T20:21:26.697Z,7.54
2023-03-16T20:23:54.163Z,7.41
2023-03-16T20:26:31.714Z,7.40
2023-03-16T20:28:59.963Z,7.50
2023-03-16T20:31:31.275Z,7.36
2023-03-16T20:33:58.992Z,7.25
2023-03-16T20:36:26.630Z,7.04
2023-03-16T20:38:53.977Z,7.08
2023-03-16T20:41:26.685Z,7.26
2023-03-16T20:43:54.866Z,7.39
2023-03-16T20:46:28.727Z,7.23
2023-03-16T20:48:56.183Z,7.27
2023-03-16T20:51:24.653Z,6.85
2023-03-16T20:53:52.506Z,6.68
2023-03-16T20:56:21.305Z,6.81
2023-03-16T20:58:49.915Z,7.09
2023-03-16T21:01:18.793Z,7.09
2023-03-16T21:03:49.009Z,7.28
2023-03-16T21:06:25.025Z,7.17
2023-03-16T21:08:53.032Z,7.18
2023-03-16T21:11:48.073Z,6.79
2023-03-16T21:14:17.664Z,7.19
2023-03-16T21:16:45.400Z,6.85
2023-03-16T21:19:14.473Z,6.93
2023-03-16T21:21:41.989Z,7.06
2023-03-16T21:24:09.639Z,7.21
2023-03-16T21:26:37.413Z,6.82
2023-03-16T21:29:08.206Z,6.90
2023-03-16T21:31:36.170Z,6.88
2023-03-16T21:34:05.601Z,6.97
2023-03-16T21:36:32.993Z,6.86
2023-03-16T21:39:00.644Z,6.82
2023-03-16T21:41:28.282Z,6.59
2023-03-16T21:43:55.945Z,6.49
2023-03-16T21:46:23.856Z,6.70
2023-03-16T21:48:53.144Z,6.45
2023-03-16T21:51:26.353Z,6.84
2023-03-16T21:53:54.011Z,6.82
2023-03-16T21:56:22.882Z,6.54
2023-03-16T21:58:50.282Z,6.66
2023-03-16T22:01:20.530Z,6.91
2023-03-16T22:03:51.309Z,6.46
2023-03-16T22:06:19.786Z,6.02
2023-03-16T22:08:47.154Z,6.46
2023-03-16T22:11:16.742Z,6.59
2023-03-16T22:13:44.087Z,6.34
2023-03-16T22:16:16.322Z,6.24
2023-03-16T22:18:45.049Z,5.75
2023-03-16T22:21:32.994Z,6.13
2023-03-16T22:24:01.164Z,5.84
2023-03-16T22:26:29.195Z,5.63
2023-03-16T22:28:56.618Z,5.44
2023-03-16T22:31:30.139Z,5.85
2023-03-16T22:33:57.557Z,6.16
2023-03-16T22:36:25.152Z,5.60
2023-03-16T22:39:00.232Z,5.22
2023-03-16T22:41:28.586Z,5.37
2023-03-16T22:43:55.948Z,5.57
2023-03-16T22:46:24.905Z,5.64
2023-03-16T22:48:53.179Z,5.42
2023-03-16T22:51:29.033Z,5.42
2023-03-16T22:53:59.843Z,5.87
2023-03-16T22:56:27.241Z,5.76
2023-03-16T22:58:56.230Z,5.74
2023-03-16T23:01:36.472Z,5.68
2023-03-16T23:04:03.863Z,5.49
2023-03-16T23:06:35.108Z,5.58
2023-03-16T23:09:02.479Z,5.23
2023-03-16T23:11:33.615Z,5.50
2023-03-16T23:14:01.306Z,5.33
2023-03-16T23:16:35.812Z,5.55
2023-03-16T23:19:18.726Z,4.91
2023-03-16T23:21:46.462Z,4.75
2023-03-16T23:24:14.093Z,4.93
2023-03-16T23:26:41.460Z,4.99
2023-03-16T23:29:09.810Z,5.43
2023-03-16T23:31:37.636Z,5.23
2023-03-16T23:34:12.338Z,5.67
2023-03-16T23:36:40.007Z,5.82
2023-03-16T23:39:07.573Z,5.94
2023-03-16T23:41:34.966Z,5.48
2023-03-16T23:44:03.664Z,5.64
2023-03-16T23:46:31.070Z,5.56
2023-03-16T23:48:58.628Z,5.41
2023-03-16T23:51:28.154Z,5.37
2023-03-16T23:53:55.759Z,5.17
2023-03-16T23:56:23.318Z,4.88
2023-03-16T23:58:51.114Z,5.38
